sensor_id;sensor_type;location;lat;lon;timestamp;pressure;altitude;pressure_sealevel;temperature;humidity
74103;BME280;62853;46.166;3.640;2022-09-29T00:00:55;99878.78;;;6.87;100.00
74103;BME280;62853;46.166;3.640;2022-09-29T00:03:21;99877.19;;;6.84;100.00
74103;BME280;62853;46.166;3.640;2022-09-29T00:05:52;99879.13;;;6.81;100.00
74103;BME280;62853;46.166;3.640;2022-09-29T00:08:18;99873.88;;;6.81;100.00
74103;BME280;62853;46.166;3.640;2022-09-29T00:10:45;99879.72;;;6.86;100.00
74103;BME280;62853;46.166;3.640;2022-09-29T00:13:11;99879.03;;;6.82;100.00
74103;BME280;62853;46.166;3.640;2022-09-29T00:15:37;99875.75;;;6.79;100.00
74103;BME280;62853;46.166;3.640;2022-09-29T00:18:02;99875.06;;;6.75;100.00
74103;BME280;62853;46.166;3.640;2022-09-29T00:20:29;99870.53;;;6.79;100.00
74103;BME280;62853;46.166;3.640;2022-09-29T00:22:54;99877.44;;;6.80;100.00
74103;BME280;62853;46.166;3.640;2022-09-29T00:25:19;99874.84;;;6.80;100.00
74103;BME280;62853;46.166;3.640;2022-09-29T00:27:45;99878.69;;;6.73;100.00
74103;BME280;62853;46.166;3.640;2022-09-29T00:30:11;99876.25;;;6.69;100.00
74103;BME280;62853;46.166;3.640;2022-09-29T00:32:36;99872.34;;;6.61;100.00
74103;BME280;62853;46.166;3.640;2022-09-29T00:35:01;99872.34;;;6.61;100.00
74103;BME280;62853;46.166;3.640;2022-09-29T00:37:27;99881.31;;;6.57;100.00
74103;BME280;62853;46.166;3.640;2022-09-29T00:39:52;99874.28;;;6.57;100.00
74103;BME280;62853;46.166;3.640;2022-09-29T00:42:18;99874.63;;;6.51;100.00
74103;BME280;62853;46.166;3.640;2022-09-29T00:44:56;99868.38;;;6.54;100.00
74103;BME280;62853;46.166;3.640;2022-09-29T00:47:22;99873.78;;;6.50;100.00
74103;BME280;62853;46.166;3.640;2022-09-29T00:50:04;99880.78;;;6.50;100.00
74103;BME280;62853;46.166;3.640;2022-09-29T00:52:37;99874.13;;;6.44;100.00
74103;BME280;62853;46.166;3.640;2022-09-29T00:55:08;99874.19;;;6.43;100.00
74103;BME280;62853;46.166;3.640;2022-09-29T00:57:42;99874.81;;;6.48;100.00
74103;BME280;62853;46.166;3.640;2022-09-29T01:00:11;99875.63;;;6.48;100.00
74103;BME280;62853;46.166;3.640;2022-09-29T01:02:40;99872.56;;;6.40;100.00
74103;BME280;62853;46.166;3.640;2022-09-29T01:05:10;99864.97;;;6.36;100.00
74103;BME280;62853;46.166;3.640;2022-09-29T01:07:38;99870.13;;;6.37;100.00
74103;BME280;62853;46.166;3.640;2022-09-29T01:10:03;99864.28;;;6.32;100.00
74103;BME280;62853;46.166;3.640;2022-09-29T01:12:31;99868.69;;;6.31;100.00
74103;BME280;62853;46.166;3.640;2022-09-29T01:14:56;99866.75;;;6.35;100.00
74103;BME280;62853;46.166;3.640;2022-09-29T01:17:22;99872.22;;;6.30;100.00
74103;BME280;62853;46.166;3.640;2022-09-29T01:20:06;99865.31;;;6.29;100.00
74103;BME280;62853;46.166;3.640;2022-09-29T01:36:50;99869.88;;;6.26;100.00
74103;BME280;62853;46.166;3.640;2022-09-29T01:39:29;99872.63;;;6.23;100.00
74103;BME280;62853;46.166;3.640;2022-09-29T01:42:08;99873.47;;;6.23;100.00
74103;BME280;62853;46.166;3.640;2022-09-29T01:44:46;99870.09;;;6.21;100.00
74103;BME280;62853;46.166;3.640;2022-09-29T01:47:24;99874.16;;;6.27;100.00
74103;BME280;62853;46.166;3.640;2022-09-29T01:50:19;99875.63;;;6.15;100.00
74103;BME280;62853;46.166;3.640;2022-09-29T01:52:58;99882.19;;;6.06;100.00
74103;BME280;62853;46.166;3.640;2022-09-29T01:55:29;99883.22;;;6.04;100.00
74103;BME280;62853;46.166;3.640;2022-09-29T01:57:59;99883.34;;;6.01;100.00
74103;BME280;62853;46.166;3.640;2022-09-29T02:00:28;99876.59;;;5.96;100.00
74103;BME280;62853;46.166;3.640;2022-09-29T02:05:52;99877.50;;;5.95;100.00
74103;BME280;62853;46.166;3.640;2022-09-29T02:08:25;99881.81;;;5.96;100.00
74103;BME280;62853;46.166;3.640;2022-09-29T02:11:00;99881.66;;;6.00;100.00
74103;BME280;62853;46.166;3.640;2022-09-29T02:13:39;99877.19;;;6.02;100.00
74103;BME280;62853;46.166;3.640;2022-09-29T02:16:08;99881.72;;;5.98;100.00
74103;BME280;62853;46.166;3.640;2022-09-29T02:18:43;99878.34;;;5.96;100.00
74103;BME280;62853;46.166;3.640;2022-09-29T02:21:11;99887.72;;;6.00;100.00
74103;BME280;62853;46.166;3.640;2022-09-29T02:23:37;99880.19;;;5.94;100.00
74103;BME280;62853;46.166;3.640;2022-09-29T02:26:02;99874.56;;;5.84;100.00
74103;BME280;62853;46.166;3.640;2022-09-29T02:28:28;99874.50;;;5.86;100.00
74103;BME280;62853;46.166;3.640;2022-09-29T02:30:53;99879.25;;;5.77;100.00
74103;BME280;62853;46.166;3.640;2022-09-29T02:33:24;99879.19;;;5.79;100.00
74103;BME280;62853;46.166;3.640;2022-09-29T02:36:24;99884.25;;;5.82;100.00
74103;BME280;62853;46.166;3.640;2022-09-29T02:39:03;99879.13;;;5.81;100.00
74103;BME280;62853;46.166;3.640;2022-09-29T02:52:35;99875.13;;;5.73;100.00
74103;BME280;62853;46.166;3.640;2022-09-29T02:55:16;99880.56;;;5.69;100.00
74103;BME280;62853;46.166;3.640;2022-09-29T02:58:13;99885.03;;;5.67;100.00
74103;BME280;62853;46.166;3.640;2022-09-29T03:00:40;99877.41;;;5.62;100.00
74103;BME280;62853;46.166;3.640;2022-09-29T03:03:06;99878.47;;;5.58;100.00
74103;BME280;62853;46.166;3.640;2022-09-29T03:05:32;99881.97;;;5.58;100.00
74103;BME280;62853;46.166;3.640;2022-09-29T03:07:57;99882.78;;;5.59;100.00
74103;BME280;62853;46.166;3.640;2022-09-29T03:10:23;99881.88;;;5.60;100.00
74103;BME280;62853;46.166;3.640;2022-09-29T03:12:48;99880.03;;;5.62;100.00
74103;BME280;62853;46.166;3.640;2022-09-29T03:15:14;99892.34;;;5.60;100.00
74103;BME280;62853;46.166;3.640;2022-09-29T03:17:39;99881.88;;;5.60;100.00
74103;BME280;62853;46.166;3.640;2022-09-29T03:20:06;99875.94;;;5.56;100.00
74103;BME280;62853;46.166;3.640;2022-09-29T03:22:32;99880.88;;;5.63;100.00
74103;BME280;62853;46.166;3.640;2022-09-29T03:24:57;99881.16;;;5.56;100.00
74103;BME280;62853;46.166;3.640;2022-09-29T03:27:23;99879.78;;;5.49;100.00
74103;BME280;62853;46.166;3.640;2022-09-29T03:29:48;99879.63;;;5.52;100.00
74103;BME280;62853;46.166;3.640;2022-09-29T03:32:15;99889.09;;;5.55;100.00
74103;BME280;62853;46.166;3.640;2022-09-29T03:34:40;99880.19;;;5.42;100.00
74103;BME280;62853;46.166;3.640;2022-09-29T03:37:06;99880.47;;;5.35;100.00
74103;BME280;62853;46.166;3.640;2022-09-29T03:39:31;99883.75;;;5.39;100.00
74103;BME280;62853;46.166;3.640;2022-09-29T03:41:56;99879.47;;;5.38;100.00
74103;BME280;62853;46.166;3.640;2022-09-29T03:44:22;99873.25;;;5.40;100.00
74103;BME280;62853;46.166;3.640;2022-09-29T03:46:47;99881.28;;;5.36;100.00
74103;BME280;62853;46.166;3.640;2022-09-29T03:49:13;99888.38;;;5.34;100.00
74103;BME280;62853;46.166;3.640;2022-09-29T03:51:42;99892.69;;;5.35;100.00
74103;BME280;62853;46.166;3.640;2022-09-29T03:54:08;99886.53;;;5.36;100.00
74103;BME280;62853;46.166;3.640;2022-09-29T03:56:35;99883.16;;;5.34;100.00
74103;BME280;62853;46.166;3.640;2022-09-29T03:59:00;99890.16;;;5.33;100.00
74103;BME280;62853;46.166;3.640;2022-09-29T04:01:26;99889.19;;;5.34;100.00
74103;BME280;62853;46.166;3.640;2022-09-29T04:03:51;99889.66;;;5.25;100.00
74103;BME280;62853;46.166;3.640;2022-09-29T04:06:16;99891.06;;;5.32;100.00
74103;BME280;62853;46.166;3.640;2022-09-29T04:08:42;99888.44;;;5.32;100.00
74103;BME280;62853;46.166;3.640;2022-09-29T04:11:08;99890.00;;;5.36;100.00
74103;BME280;62853;46.166;3.640;2022-09-29T04:13:33;99894.50;;;5.33;100.00
74103;BME280;62853;46.166;3.640;2022-09-29T04:16:00;99900.50;;;5.35;100.00
74103;BME280;62853;46.166;3.640;2022-09-29T04:18:26;99895.78;;;5.43;100.00
74103;BME280;62853;46.166;3.640;2022-09-29T04:20:51;99903.88;;;5.37;100.00
74103;BME280;62853;46.166;3.640;2022-09-29T04:23:17;99904.19;;;5.31;100.00
74103;BME280;62853;46.166;3.640;2022-09-29T04:25:45;99898.25;;;5.27;100.00
74103;BME280;62853;46.166;3.640;2022-09-29T04:28:11;99897.78;;;5.19;100.00
74103;BME280;62853;46.166;3.640;2022-09-29T04:30:36;99898.66;;;5.19;100.00
74103;BME280;62853;46.166;3.640;2022-09-29T04:33:02;99905.75;;;5.16;100.00
74103;BME280;62853;46.166;3.640;2022-09-29T04:35:28;99912.03;;;5.12;100.00
74103;BME280;62853;46.166;3.640;2022-09-29T04:37:55;99913.66;;;5.14;100.00
74103;BME280;62853;46.166;3.640;2022-09-29T04:40:24;99913.56;;;5.16;100.00
74103;BME280;62853;46.166;3.640;2022-09-29T04:42:50;99913.03;;;5.09;100.00
74103;BME280;62853;46.166;3.640;2022-09-29T04:45:15;99919.25;;;5.07;100.00
74103;BME280;62853;46.166;3.640;2022-09-29T04:47:41;99919.25;;;5.07;100.00
74103;BME280;62853;46.166;3.640;2022-09-29T04:50:06;99916.56;;;5.08;100.00
74103;BME280;62853;46.166;3.640;2022-09-29T04:52:34;99923.53;;;4.89;100.00
74103;BME280;62853;46.166;3.640;2022-09-29T04:54:59;99913.41;;;4.82;100.00
74103;BME280;62853;46.166;3.640;2022-09-29T04:57:25;99934.75;;;4.91;100.00
74103;BME280;62853;46.166;3.640;2022-09-29T04:59:50;99932.06;;;4.92;100.00
74103;BME280;62853;46.166;3.640;2022-09-29T05:02:19;99928.84;;;4.87;100.00
74103;BME280;62853;46.166;3.640;2022-09-29T05:04:45;99933.34;;;4.83;100.00
74103;BME280;62853;46.166;3.640;2022-09-29T05:07:12;99924.63;;;4.84;100.00
74103;BME280;62853;46.166;3.640;2022-09-29T05:09:38;99933.84;;;4.92;100.00
74103;BME280;62853;46.166;3.640;2022-09-29T05:12:03;99932.31;;;4.88;100.00
74103;BME280;62853;46.166;3.640;2022-09-29T05:14:28;99923.47;;;4.90;100.00
74103;BME280;62853;46.166;3.640;2022-09-29T05:16:55;99933.91;;;4.90;100.00
74103;BME280;62853;46.166;3.640;2022-09-29T05:19:20;99928.69;;;4.90;100.00
74103;BME280;62853;46.166;3.640;2022-09-29T05:21:45;99936.72;;;4.85;100.00
74103;BME280;62853;46.166;3.640;2022-09-29T05:24:11;99945.56;;;4.83;100.00
74103;BME280;62853;46.166;3.640;2022-09-29T05:26:37;99948.88;;;4.87;100.00
74103;BME280;62853;46.166;3.640;2022-09-29T05:29:02;99945.56;;;4.83;100.00
74103;BME280;62853;46.166;3.640;2022-09-29T05:31:28;99950.56;;;4.88;100.00
74103;BME280;62853;46.166;3.640;2022-09-29T05:33:56;99948.81;;;4.88;100.00
74103;BME280;62853;46.166;3.640;2022-09-29T05:36:22;99947.53;;;4.78;100.00
74103;BME280;62853;46.166;3.640;2022-09-29T05:38:48;99948.31;;;4.80;100.00
74103;BME280;62853;46.166;3.640;2022-09-29T05:41:14;99956.06;;;4.81;100.00
74103;BME280;62853;46.166;3.640;2022-09-29T05:43:49;99961.41;;;4.78;100.00
74103;BME280;62853;46.166;3.640;2022-09-29T05:46:15;99958.03;;;4.76;100.00
74103;BME280;62853;46.166;3.640;2022-09-29T05:48:42;99957.91;;;4.79;100.00
74103;BME280;62853;46.166;3.640;2022-09-29T05:51:09;99966.69;;;4.77;100.00
74103;BME280;62853;46.166;3.640;2022-09-29T05:53:36;99968.59;;;4.73;100.00
74103;BME280;62853;46.166;3.640;2022-09-29T05:56:09;99966.59;;;4.59;100.00
74103;BME280;62853;46.166;3.640;2022-09-29T05:58:36;99971.88;;;4.58;100.00
74103;BME280;62853;46.166;3.640;2022-09-29T06:01:07;99976.91;;;4.62;100.00
74103;BME280;62853;46.166;3.640;2022-09-29T06:03:34;99977.63;;;4.66;100.00
74103;BME280;62853;46.166;3.640;2022-09-29T06:06:23;99980.94;;;4.70;100.00
74103;BME280;62853;46.166;3.640;2022-09-29T06:08:49;99977.09;;;4.58;100.00
74103;BME280;62853;46.166;3.640;2022-09-29T06:11:17;99982.06;;;4.64;100.00
74103;BME280;62853;46.166;3.640;2022-09-29T06:13:44;99983.59;;;4.68;100.00
74103;BME280;62853;46.166;3.640;2022-09-29T06:16:11;99985.56;;;4.63;100.00
74103;BME280;62853;46.166;3.640;2022-09-29T06:18:36;99993.91;;;4.71;100.00
74103;BME280;62853;46.166;3.640;2022-09-29T06:21:06;99986.16;;;4.70;100.00
74103;BME280;62853;46.166;3.640;2022-09-29T06:23:32;99982.97;;;4.82;100.00
74103;BME280;62853;46.166;3.640;2022-09-29T06:26:00;99991.31;;;4.90;100.00
74103;BME280;62853;46.166;3.640;2022-09-29T06:28:29;99993.66;;;4.96;100.00
74103;BME280;62853;46.166;3.640;2022-09-29T06:30:59;99989.84;;;5.03;100.00
74103;BME280;62853;46.166;3.640;2022-09-29T06:33:28;99994.22;;;5.03;100.00
74103;BME280;62853;46.166;3.640;2022-09-29T06:35:55;99995.78;;;5.07;100.00
74103;BME280;62853;46.166;3.640;2022-09-29T06:38:39;99999.09;;;5.11;100.00
74103;BME280;62853;46.166;3.640;2022-09-29T06:41:04;99997.19;;;5.14;100.00
74103;BME280;62853;46.166;3.640;2022-09-29T06:43:31;100001.63;;;5.12;100.00
74103;BME280;62853;46.166;3.640;2022-09-29T06:45:57;100006.72;;;5.15;100.00
74103;BME280;62853;46.166;3.640;2022-09-29T06:48:22;100012.56;;;5.20;100.00
74103;BME280;62853;46.166;3.640;2022-09-29T06:50:47;100014.28;;;5.21;100.00
74103;BME280;62853;46.166;3.640;2022-09-29T06:53:13;100016.88;;;5.40;100.00
74103;BME280;62853;46.166;3.640;2022-09-29T06:55:38;100014.88;;;5.46;100.00
74103;BME280;62853;46.166;3.640;2022-09-29T06:58:04;100007.47;;;5.55;100.00
74103;BME280;62853;46.166;3.640;2022-09-29T07:00:30;100015.03;;;5.62;100.00
74103;BME280;62853;46.166;3.640;2022-09-29T07:02:55;100017.34;;;5.68;100.00
74103;BME280;62853;46.166;3.640;2022-09-29T07:05:20;100017.34;;;5.68;100.00
74103;BME280;62853;46.166;3.640;2022-09-29T07:07:48;100009.00;;;5.78;100.00
74103;BME280;62853;46.166;3.640;2022-09-29T07:10:14;100014.66;;;5.87;100.00
74103;BME280;62853;46.166;3.640;2022-09-29T07:12:40;100012.06;;;5.87;100.00
74103;BME280;62853;46.166;3.640;2022-09-29T07:15:06;100020.25;;;5.98;100.00
74103;BME280;62853;46.166;3.640;2022-09-29T07:17:31;100026.25;;;6.00;100.00
74103;BME280;62853;46.166;3.640;2022-09-29T07:19:56;100023.28;;;6.08;100.00
74103;BME280;62853;46.166;3.640;2022-09-29T07:22:23;100028.44;;;6.09;100.00
74103;BME280;62853;46.166;3.640;2022-09-29T07:24:48;100029.06;;;6.14;100.00
74103;BME280;62853;46.166;3.640;2022-09-29T07:27:15;100033.25;;;6.17;100.00
74103;BME280;62853;46.166;3.640;2022-09-29T07:29:43;100037.22;;;6.26;100.00
74103;BME280;62853;46.166;3.640;2022-09-29T07:32:08;100040.53;;;6.29;100.00
74103;BME280;62853;46.166;3.640;2022-09-29T07:34:34;100039.97;;;6.40;100.00
74103;BME280;62853;46.166;3.640;2022-09-29T07:36:59;100045.19;;;6.40;100.00
74103;BME280;62853;46.166;3.640;2022-09-29T07:39:24;100052.53;;;6.51;100.00
74103;BME280;62853;46.166;3.640;2022-09-29T07:41:50;100061.00;;;6.56;100.00
74103;BME280;62853;46.166;3.640;2022-09-29T07:44:16;100055.34;;;6.64;100.00
74103;BME280;62853;46.166;3.640;2022-09-29T07:46:42;100057.66;;;6.70;100.00
74103;BME280;62853;46.166;3.640;2022-09-29T07:49:07;100059.19;;;6.74;100.00
74103;BME280;62853;46.166;3.640;2022-09-29T07:51:32;100055.16;;;6.84;100.00
74103;BME280;62853;46.166;3.640;2022-09-29T07:54:03;100061.94;;;6.88;100.00
74103;BME280;62853;46.166;3.640;2022-09-29T07:56:28;100065.09;;;6.95;100.00
74103;BME280;62853;46.166;3.640;2022-09-29T07:58:54;100071.47;;;7.07;100.00
74103;BME280;62853;46.166;3.640;2022-09-29T08:01:20;100067.59;;;7.14;100.00
74103;BME280;62853;46.166;3.640;2022-09-29T08:03:53;100067.09;;;7.23;100.00
74103;BME280;62853;46.166;3.640;2022-09-29T08:06:20;100067.78;;;7.27;100.00
74103;BME280;62853;46.166;3.640;2022-09-29T08:08:46;100072.75;;;7.32;100.00
74103;BME280;62853;46.166;3.640;2022-09-29T08:11:15;100078.94;;;7.31;100.00
74103;BME280;62853;46.166;3.640;2022-09-29T08:13:40;100082.00;;;7.39;100.00
74103;BME280;62853;46.166;3.640;2022-09-29T08:16:09;100079.81;;;7.47;100.00
74103;BME280;62853;46.166;3.640;2022-09-29T08:18:35;100085.53;;;7.54;100.00
74103;BME280;62853;46.166;3.640;2022-09-29T08:21:01;100076.44;;;7.61;100.00
74103;BME280;62853;46.166;3.640;2022-09-29T08:23:27;100088.53;;;7.79;100.00
74103;BME280;62853;46.166;3.640;2022-09-29T08:26:06;100085.38;;;7.89;100.00
74103;BME280;62853;46.166;3.640;2022-09-29T08:28:34;100090.88;;;8.00;100.00
74103;BME280;62853;46.166;3.640;2022-09-29T08:31:04;100089.44;;;8.10;100.00
74103;BME280;62853;46.166;3.640;2022-09-29T08:33:30;100094.34;;;8.16;100.00
74103;BME280;62853;46.166;3.640;2022-09-29T08:35:57;100101.00;;;8.22;100.00
74103;BME280;62853;46.166;3.640;2022-09-29T08:38:24;100096.50;;;8.24;100.00
74103;BME280;62853;46.166;3.640;2022-09-29T08:40:50;100094.38;;;8.31;100.00
74103;BME280;62853;46.166;3.640;2022-09-29T08:43:21;100107.50;;;8.31;100.00
74103;BME280;62853;46.166;3.640;2022-09-29T08:48:42;100102.25;;;8.31;100.00
74103;BME280;62853;46.166;3.640;2022-09-29T08:51:26;100109.03;;;8.35;100.00
74103;BME280;62853;46.166;3.640;2022-09-29T08:53:56;100107.81;;;8.41;100.00
74103;BME280;62853;46.166;3.640;2022-09-29T08:56:24;100106.03;;;8.41;100.00
74103;BME280;62853;46.166;3.640;2022-09-29T08:58:50;100110.03;;;8.48;100.00
74103;BME280;62853;46.166;3.640;2022-09-29T09:01:20;100115.28;;;8.48;100.00
74103;BME280;62853;46.166;3.640;2022-09-29T09:04:27;100116.97;;;8.49;100.00
74103;BME280;62853;46.166;3.640;2022-09-29T09:07:23;100114.50;;;8.46;100.00
74103;BME280;62853;46.166;3.640;2022-09-29T09:20:40;100134.81;;;8.59;100.00
74103;BME280;62853;46.166;3.640;2022-09-29T09:26:07;100128.28;;;8.66;100.00
74103;BME280;62853;46.166;3.640;2022-09-29T09:28:41;100131.81;;;8.65;100.00
74103;BME280;62853;46.166;3.640;2022-09-29T09:33:42;100127.94;;;8.72;100.00
74103;BME280;62853;46.166;3.640;2022-09-29T09:36:14;100121.53;;;8.76;100.00
74103;BME280;62853;46.166;3.640;2022-09-29T09:38:54;100122.22;;;8.80;100.00
74103;BME280;62853;46.166;3.640;2022-09-29T09:41:23;100129.81;;;8.84;100.00
74103;BME280;62853;46.166;3.640;2022-09-29T09:43:57;100129.66;;;8.87;100.00
74103;BME280;62853;46.166;3.640;2022-09-29T09:46:31;100126.16;;;8.87;100.00
74103;BME280;62853;46.166;3.640;2022-09-29T09:51:41;100130.97;;;8.94;100.00
74103;BME280;62853;46.166;3.640;2022-09-29T09:54:14;100138.50;;;9.01;100.00
74103;BME280;62853;46.166;3.640;2022-09-29T10:02:21;100141.22;;;9.13;100.00
74103;BME280;62853;46.166;3.640;2022-09-29T10:04:50;100143.56;;;9.18;100.00
74103;BME280;62853;46.166;3.640;2022-09-29T10:07:21;100146.41;;;9.29;100.00
74103;BME280;62853;46.166;3.640;2022-09-29T10:09:48;100149.28;;;9.39;100.00
74103;BME280;62853;46.166;3.640;2022-09-29T10:12:16;100142.53;;;9.35;100.00
74103;BME280;62853;46.166;3.640;2022-09-29T10:14:52;100140.75;;;9.36;100.00
74103;BME280;62853;46.166;3.640;2022-09-29T10:17:22;100149.41;;;9.38;100.00
74103;BME280;62853;46.166;3.640;2022-09-29T10:22:18;100143.41;;;9.50;100.00
74103;BME280;62853;46.166;3.640;2022-09-29T10:24:44;100147.50;;;9.54;100.00
74103;BME280;62853;46.166;3.640;2022-09-29T10:27:09;100145.06;;;9.65;100.00
74103;BME280;62853;46.166;3.640;2022-09-29T10:29:37;100144.69;;;9.72;100.00
74103;BME280;62853;46.166;3.640;2022-09-29T10:34:39;100150.47;;;9.91;100.00
74103;BME280;62853;46.166;3.640;2022-09-29T10:37:38;100154.31;;;10.00;100.00
74103;BME280;62853;46.166;3.640;2022-09-29T10:42:40;100150.56;;;10.04;100.00
74103;BME280;62853;46.166;3.640;2022-09-29T10:47:31;100144.59;;;10.15;100.00
74103;BME280;62853;46.166;3.640;2022-09-29T10:53:17;100147.56;;;10.37;100.00
74103;BME280;62853;46.166;3.640;2022-09-29T10:55:50;100149.97;;;10.40;100.00
74103;BME280;62853;46.166;3.640;2022-09-29T10:58:21;100154.84;;;10.47;100.00
74103;BME280;62853;46.166;3.640;2022-09-29T11:00:48;100160.38;;;10.56;100.00
74103;BME280;62853;46.166;3.640;2022-09-29T11:05:51;100161.41;;;10.81;100.00
74103;BME280;62853;46.166;3.640;2022-09-29T11:08:18;100150.66;;;10.97;100.00
74103;BME280;62853;46.166;3.640;2022-09-29T11:16:16;100160.25;;;10.98;100.00
74103;BME280;62853;46.166;3.640;2022-09-29T11:18:43;100160.16;;;11.12;100.00
74103;BME280;62853;46.166;3.640;2022-09-29T11:30:00;100164.19;;;11.18;100.00
74103;BME280;62853;46.166;3.640;2022-09-29T11:41:17;100172.81;;;11.59;94.85
74103;BME280;62853;46.166;3.640;2022-09-29T11:52:26;100176.97;;;12.37;92.69
74103;BME280;62853;46.166;3.640;2022-09-29T11:55:16;100170.91;;;12.47;96.24
74103;BME280;62853;46.166;3.640;2022-09-29T12:00:19;100169.66;;;12.64;90.21
74103;BME280;62853;46.166;3.640;2022-09-29T12:05:39;100178.56;;;12.75;99.08
74103;BME280;62853;46.166;3.640;2022-09-29T12:13:29;100176.13;;;12.96;99.66
74103;BME280;62853;46.166;3.640;2022-09-29T12:16:00;100184.31;;;13.04;85.01
74103;BME280;62853;46.166;3.640;2022-09-29T12:18:49;100178.94;;;13.17;95.22
74103;BME280;62853;46.166;3.640;2022-09-29T12:21:27;100174.84;;;13.13;92.85
74103;BME280;62853;46.166;3.640;2022-09-29T12:23:54;100177.03;;;13.19;91.32
74103;BME280;62853;46.166;3.640;2022-09-29T12:26:22;100174.75;;;13.26;84.69
74103;BME280;62853;46.166;3.640;2022-09-29T12:28:53;100176.56;;;13.25;91.60
74103;BME280;62853;46.166;3.640;2022-09-29T12:31:34;100176.50;;;13.02;89.88
74103;BME280;62853;46.166;3.640;2022-09-29T12:37:04;100184.06;;;12.96;97.71
74103;BME280;62853;46.166;3.640;2022-09-29T12:40:21;100176.41;;;13.04;97.28
74103;BME280;62853;46.166;3.640;2022-09-29T12:48:34;100178.47;;;13.23;88.45
74103;BME280;62853;46.166;3.640;2022-09-29T12:51:25;100173.78;;;13.27;86.60
74103;BME280;62853;46.166;3.640;2022-09-29T12:56:35;100172.59;;;13.19;95.62
74103;BME280;62853;46.166;3.640;2022-09-29T12:59:08;100177.88;;;13.19;97.28
74103;BME280;62853;46.166;3.640;2022-09-29T13:01:38;100177.63;;;13.23;96.46
74103;BME280;62853;46.166;3.640;2022-09-29T13:06:48;100185.63;;;12.98;95.59
74103;BME280;62853;46.166;3.640;2022-09-29T13:17:52;100182.22;;;12.50;98.31
74103;BME280;62853;46.166;3.640;2022-09-29T13:20:41;100176.53;;;12.43;99.62
74103;BME280;62853;46.166;3.640;2022-09-29T13:28:40;100180.63;;;12.47;91.87
74103;BME280;62853;46.166;3.640;2022-09-29T13:31:12;100172.00;;;12.56;94.63
74103;BME280;62853;46.166;3.640;2022-09-29T13:33:46;100180.91;;;12.55;85.19
74103;BME280;62853;46.166;3.640;2022-09-29T13:36:21;100178.66;;;12.62;86.97
74103;BME280;62853;46.166;3.640;2022-09-29T13:38:53;100176.84;;;12.62;95.77
74103;BME280;62853;46.166;3.640;2022-09-29T13:49:15;100190.72;;;12.77;91.11
74103;BME280;62853;46.166;3.640;2022-09-29T13:59:45;100188.75;;;12.68;83.89
74103;BME280;62853;46.166;3.640;2022-09-29T14:05:00;100187.59;;;12.48;95.20
74103;BME280;62853;46.166;3.640;2022-09-29T14:10:22;100189.88;;;12.53;87.40
74103;BME280;62853;46.166;3.640;2022-09-29T14:15:32;100191.59;;;12.54;84.46
74103;BME280;62853;46.166;3.640;2022-09-29T14:18:02;100200.13;;;12.57;94.52
74103;BME280;62853;46.166;3.640;2022-09-29T14:20:33;100203.97;;;12.53;95.48
74103;BME280;62853;46.166;3.640;2022-09-29T14:23:05;100207.22;;;12.57;84.79
74103;BME280;62853;46.166;3.640;2022-09-29T14:28:26;100204.78;;;12.54;96.13
74103;BME280;62853;46.166;3.640;2022-09-29T14:30:56;100214.53;;;12.53;98.20
74103;BME280;62853;46.166;3.640;2022-09-29T14:33:35;100219.19;;;12.50;99.80
74103;BME280;62853;46.166;3.640;2022-09-29T14:36:13;100221.94;;;12.48;99.21
74103;BME280;62853;46.166;3.640;2022-09-29T14:38:53;100217.81;;;12.44;88.39
74103;BME280;62853;46.166;3.640;2022-09-29T14:41:25;100217.81;;;12.44;96.62
74103;BME280;62853;46.166;3.640;2022-09-29T14:44:09;100218.78;;;12.43;99.28
74103;BME280;62853;46.166;3.640;2022-09-29T14:47:11;100221.44;;;12.43;97.95
74103;BME280;62853;46.166;3.640;2022-09-29T14:50:37;100223.31;;;12.41;100.00
74103;BME280;62853;46.166;3.640;2022-09-29T15:03:52;100231.31;;;12.52;96.64
74103;BME280;62853;46.166;3.640;2022-09-29T15:06:23;100235.06;;;12.61;96.68
74103;BME280;62853;46.166;3.640;2022-09-29T15:11:28;100238.63;;;12.73;98.37
74103;BME280;62853;46.166;3.640;2022-09-29T15:13:55;100236.94;;;12.72;97.90
74103;BME280;62853;46.166;3.640;2022-09-29T15:16:26;100244.88;;;12.72;97.59
74103;BME280;62853;46.166;3.640;2022-09-29T15:19:04;100233.44;;;12.71;96.49
74103;BME280;62853;46.166;3.640;2022-09-29T15:21:42;100239.47;;;12.73;93.85
74103;BME280;62853;46.166;3.640;2022-09-29T15:26:40;100250.06;;;12.73;99.67
74103;BME280;62853;46.166;3.640;2022-09-29T15:29:07;100244.78;;;12.73;93.53
74103;BME280;62853;46.166;3.640;2022-09-29T15:31:35;100240.31;;;12.74;94.33
74103;BME280;62853;46.166;3.640;2022-09-29T15:34:01;100249.81;;;12.76;97.29
74103;BME280;62853;46.166;3.640;2022-09-29T15:36:36;100247.06;;;12.78;99.70
74103;BME280;62853;46.166;3.640;2022-09-29T15:39:09;100253.19;;;12.78;99.52
74103;BME280;62853;46.166;3.640;2022-09-29T15:41:40;100260.25;;;12.78;100.00
74103;BME280;62853;46.166;3.640;2022-09-29T15:44:14;100264.94;;;12.74;100.00
74103;BME280;62853;46.166;3.640;2022-09-29T15:47:00;100260.38;;;12.76;100.00
74103;BME280;62853;46.166;3.640;2022-09-29T15:49:26;100263.47;;;12.70;99.75
74103;BME280;62853;46.166;3.640;2022-09-29T15:52:02;100266.47;;;12.65;98.63
74103;BME280;62853;46.166;3.640;2022-09-29T15:56:57;100263.19;;;12.62;98.21
74103;BME280;62853;46.166;3.640;2022-09-29T15:59:42;100276.28;;;12.63;100.00
74103;BME280;62853;46.166;3.640;2022-09-29T16:02:30;100276.72;;;12.57;99.87
74103;BME280;62853;46.166;3.640;2022-09-29T16:05:03;100283.41;;;12.50;99.97
74103;BME280;62853;46.166;3.640;2022-09-29T16:07:32;100282.03;;;12.44;100.00
74103;BME280;62853;46.166;3.640;2022-09-29T16:10:05;100285.25;;;12.37;100.00
74103;BME280;62853;46.166;3.640;2022-09-29T16:12:36;100291.94;;;12.30;100.00
74103;BME280;62853;46.166;3.640;2022-09-29T16:15:03;100293.28;;;12.22;98.75
74103;BME280;62853;46.166;3.640;2022-09-29T16:17:29;100299.03;;;12.16;100.00